sensor_id;sensor_type;location;lat;lon;timestamp;temperature;humidity
20057;DHT22;10189;49.546;7.906;2023-07-09T00:01:17;16.70;90.00
20057;DHT22;10189;49.546;7.906;2023-07-09T00:03:45;16.70;90.10
20057;DHT22;10189;49.546;7.906;2023-07-09T00:06:17;16.70;90.40
20057;DHT22;10189;49.546;7.906;2023-07-09T00:08:45;16.60;90.70
20057;DHT22;10189;49.546;7.906;2023-07-09T00:11:17;16.50;90.70
20057;DHT22;10189;49.546;7.906;2023-07-09T00:13:43;16.50;90.80
20057;DHT22;10189;49.546;7.906;2023-07-09T00:16:14;16.50;90.70
20057;DHT22;10189;49.546;7.906;2023-07-09T00:18:44;16.50;91.00
20057;DHT22;10189;49.546;7.906;2023-07-09T00:21:10;16.40;91.10
20057;DHT22;10189;49.546;7.906;2023-07-09T00:23:36;16.40;91.20
20057;DHT22;10189;49.546;7.906;2023-07-09T00:26:10;16.40;91.50
20057;DHT22;10189;49.546;7.906;2023-07-09T00:28:42;16.40;91.60
20057;DHT22;10189;49.546;7.906;2023-07-09T00:31:13;16.40;91.90
20057;DHT22;10189;49.546;7.906;2023-07-09T00:33:41;16.40;92.00
20057;DHT22;10189;49.546;7.906;2023-07-09T00:36:34;16.40;92.10
20057;DHT22;10189;49.546;7.906;2023-07-09T00:39:00;16.40;92.20
20057;DHT22;10189;49.546;7.906;2023-07-09T00:41:36;16.40;92.50
20057;DHT22;10189;49.546;7.906;2023-07-09T00:44:29;16.40;92.50
20057;DHT22;10189;49.546;7.906;2023-07-09T00:49:36;16.30;92.90
20057;DHT22;10189;49.546;7.906;2023-07-09T00:52:36;16.40;92.90
20057;DHT22;10189;49.546;7.906;2023-07-09T00:55:10;16.40;93.10
20057;DHT22;10189;49.546;7.906;2023-07-09T00:57:40;16.30;93.30
20057;DHT22;10189;49.546;7.906;2023-07-09T01:00:12;16.30;93.40
20057;DHT22;10189;49.546;7.906;2023-07-09T01:02:45;16.30;93.50
20057;DHT22;10189;49.546;7.906;2023-07-09T01:05:15;16.30;93.60
20057;DHT22;10189;49.546;7.906;2023-07-09T01:07:43;16.30;93.60
20057;DHT22;10189;49.546;7.906;2023-07-09T01:10:13;16.30;93.50
20057;DHT22;10189;49.546;7.906;2023-07-09T01:12:40;16.30;93.50
20057;DHT22;10189;49.546;7.906;2023-07-09T01:15:07;16.30;93.60
20057;DHT22;10189;49.546;7.906;2023-07-09T01:17:34;16.30;93.70
20057;DHT22;10189;49.546;7.906;2023-07-09T01:20:00;16.30;93.60
20057;DHT22;10189;49.546;7.906;2023-07-09T01:22:26;16.20;93.60
20057;DHT22;10189;49.546;7.906;2023-07-09T01:25:05;16.20;93.80
20057;DHT22;10189;49.546;7.906;2023-07-09T01:27:39;16.20;94.00
20057;DHT22;10189;49.546;7.906;2023-07-09T01:30:11;16.20;93.90
20057;DHT22;10189;49.546;7.906;2023-07-09T01:32:40;16.20;93.90
20057;DHT22;10189;49.546;7.906;2023-07-09T01:35:12;16.20;94.10
20057;DHT22;10189;49.546;7.906;2023-07-09T01:37:41;16.20;94.40
20057;DHT22;10189;49.546;7.906;2023-07-09T01:40:11;16.20;94.60
20057;DHT22;10189;49.546;7.906;2023-07-09T01:42:40;16.20;94.50
20057;DHT22;10189;49.546;7.906;2023-07-09T01:45:07;16.20;94.00
20057;DHT22;10189;49.546;7.906;2023-07-09T01:47:36;16.20;93.90
20057;DHT22;10189;49.546;7.906;2023-07-09T01:50:04;16.10;94.20
20057;DHT22;10189;49.546;7.906;2023-07-09T01:52:32;16.10;94.50
20057;DHT22;10189;49.546;7.906;2023-07-09T01:55:01;16.10;94.50
20057;DHT22;10189;49.546;7.906;2023-07-09T01:57:30;16.00;94.80
20057;DHT22;10189;49.546;7.906;2023-07-09T02:00:02;16.00;94.80
20057;DHT22;10189;49.546;7.906;2023-07-09T02:02:39;16.00;94.90
20057;DHT22;10189;49.546;7.906;2023-07-09T02:05:12;15.90;95.00
20057;DHT22;10189;49.546;7.906;2023-07-09T02:07:38;15.90;95.30
20057;DHT22;10189;49.546;7.906;2023-07-09T02:10:05;15.90;95.30
20057;DHT22;10189;49.546;7.906;2023-07-09T02:12:32;15.90;95.70
20057;DHT22;10189;49.546;7.906;2023-07-09T02:14:58;15.90;95.60
20057;DHT22;10189;49.546;7.906;2023-07-09T02:17:24;15.90;95.60
20057;DHT22;10189;49.546;7.906;2023-07-09T02:19:51;15.80;95.50
20057;DHT22;10189;49.546;7.906;2023-07-09T02:22:17;15.80;95.50
20057;DHT22;10189;49.546;7.906;2023-07-09T02:24:44;15.80;95.70
20057;DHT22;10189;49.546;7.906;2023-07-09T02:27:14;15.80;96.20
20057;DHT22;10189;49.546;7.906;2023-07-09T02:29:42;15.80;96.20
20057;DHT22;10189;49.546;7.906;2023-07-09T02:32:08;15.80;96.30
20057;DHT22;10189;49.546;7.906;2023-07-09T02:34:35;15.80;95.90
20057;DHT22;10189;49.546;7.906;2023-07-09T02:37:01;15.80;96.00
20057;DHT22;10189;49.546;7.906;2023-07-09T02:39:27;15.70;96.10
20057;DHT22;10189;49.546;7.906;2023-07-09T02:41:53;15.70;96.20
20057;DHT22;10189;49.546;7.906;2023-07-09T02:44:20;15.70;96.50
20057;DHT22;10189;49.546;7.906;2023-07-09T02:46:46;15.60;96.80
20057;DHT22;10189;49.546;7.906;2023-07-09T02:49:13;15.60;97.00
20057;DHT22;10189;49.546;7.906;2023-07-09T02:51:39;15.60;97.00
20057;DHT22;10189;49.546;7.906;2023-07-09T02:54:07;15.60;97.00
20057;DHT22;10189;49.546;7.906;2023-07-09T02:56:33;15.60;97.00
20057;DHT22;10189;49.546;7.906;2023-07-09T02:58:59;15.60;96.90
20057;DHT22;10189;49.546;7.906;2023-07-09T03:01:25;15.50;96.90
20057;DHT22;10189;49.546;7.906;2023-07-09T03:03:56;15.50;97.10
20057;DHT22;10189;49.546;7.906;2023-07-09T03:06:25;15.50;97.40
20057;DHT22;10189;49.546;7.906;2023-07-09T03:08:52;15.40;97.60
20057;DHT22;10189;49.546;7.906;2023-07-09T03:11:20;15.40;97.80
20057;DHT22;10189;49.546;7.906;2023-07-09T03:13:47;15.40;97.70
20057;DHT22;10189;49.546;7.906;2023-07-09T03:16:15;15.40;97.80
20057;DHT22;10189;49.546;7.906;2023-07-09T03:18:42;15.40;98.20
20057;DHT22;10189;49.546;7.906;2023-07-09T03:21:08;15.40;98.20
20057;DHT22;10189;49.546;7.906;2023-07-09T03:23:34;15.40;98.00
20057;DHT22;10189;49.546;7.906;2023-07-09T03:25:59;15.50;97.60
20057;DHT22;10189;49.546;7.906;2023-07-09T03:28:26;15.40;97.70
20057;DHT22;10189;49.546;7.906;2023-07-09T03:30:54;15.40;97.80
20057;DHT22;10189;49.546;7.906;2023-07-09T03:33:21;15.40;97.90
20057;DHT22;10189;49.546;7.906;2023-07-09T03:35:47;15.40;98.20
20057;DHT22;10189;49.546;7.906;2023-07-09T03:38:13;15.40;97.90
20057;DHT22;10189;49.546;7.906;2023-07-09T03:40:39;15.40;97.90
20057;DHT22;10189;49.546;7.906;2023-07-09T03:43:06;15.40;97.70
20057;DHT22;10189;49.546;7.906;2023-07-09T03:45:35;15.40;97.50
20057;DHT22;10189;49.546;7.906;2023-07-09T03:48:03;15.50;97.50
20057;DHT22;10189;49.546;7.906;2023-07-09T03:50:30;15.50;97.80
20057;DHT22;10189;49.546;7.906;2023-07-09T03:52:56;15.50;97.80
20057;DHT22;10189;49.546;7.906;2023-07-09T03:55:22;15.50;97.40
20057;DHT22;10189;49.546;7.906;2023-07-09T03:57:48;15.60;97.20
20057;DHT22;10189;49.546;7.906;2023-07-09T04:00:14;15.60;97.10
20057;DHT22;10189;49.546;7.906;2023-07-09T04:02:42;15.60;96.70
20057;DHT22;10189;49.546;7.906;2023-07-09T04:05:11;15.60;96.70
20057;DHT22;10189;49.546;7.906;2023-07-09T04:07:38;15.70;96.50
20057;DHT22;10189;49.546;7.906;2023-07-09T04:10:06;15.70;96.30
20057;DHT22;10189;49.546;7.906;2023-07-09T04:12:32;15.80;96.40
20057;DHT22;10189;49.546;7.906;2023-07-09T04:14:58;15.90;95.60
20057;DHT22;10189;49.546;7.906;2023-07-09T04:17:24;15.90;94.80
20057;DHT22;10189;49.546;7.906;2023-07-09T04:19:51;15.90;95.00
20057;DHT22;10189;49.546;7.906;2023-07-09T04:22:17;16.00;94.50
20057;DHT22;10189;49.546;7.906;2023-07-09T04:24:43;16.00;94.60
20057;DHT22;10189;49.546;7.906;2023-07-09T04:27:09;16.10;94.60
20057;DHT22;10189;49.546;7.906;2023-07-09T04:29:35;16.10;94.80
20057;DHT22;10189;49.546;7.906;2023-07-09T04:32:04;16.20;94.70
20057;DHT22;10189;49.546;7.906;2023-07-09T04:34:31;16.30;94.70
20057;DHT22;10189;49.546;7.906;2023-07-09T04:36:57;16.50;94.60
20057;DHT22;10189;49.546;7.906;2023-07-09T04:39:23;16.70;94.00
20057;DHT22;10189;49.546;7.906;2023-07-09T04:41:49;16.90;91.90
20057;DHT22;10189;49.546;7.906;2023-07-09T04:44:15;17.00;91.20
20057;DHT22;10189;49.546;7.906;2023-07-09T04:46:41;17.30;90.60
20057;DHT22;10189;49.546;7.906;2023-07-09T04:49:07;17.50;90.10
20057;DHT22;10189;49.546;7.906;2023-07-09T04:51:33;17.80;88.90
20057;DHT22;10189;49.546;7.906;2023-07-09T04:53:59;18.10;88.60
20057;DHT22;10189;49.546;7.906;2023-07-09T04:56:30;18.30;87.70
20057;DHT22;10189;49.546;7.906;2023-07-09T04:58:56;18.50;87.10
20057;DHT22;10189;49.546;7.906;2023-07-09T05:01:22;18.80;85.70
20057;DHT22;10189;49.546;7.906;2023-07-09T05:03:48;18.90;84.70
20057;DHT22;10189;49.546;7.906;2023-07-09T05:06:15;19.00;83.40
20057;DHT22;10189;49.546;7.906;2023-07-09T05:08:41;19.00;83.60
20057;DHT22;10189;49.546;7.906;2023-07-09T05:11:08;19.10;83.30
20057;DHT22;10189;49.546;7.906;2023-07-09T05:13:36;19.20;82.80
20057;DHT22;10189;49.546;7.906;2023-07-09T05:16:02;19.40;82.60
20057;DHT22;10189;49.546;7.906;2023-07-09T05:18:28;19.40;82.20
20057;DHT22;10189;49.546;7.906;2023-07-09T05:20:55;19.40;80.90
20057;DHT22;10189;49.546;7.906;2023-07-09T05:23:21;19.40;81.10
20057;DHT22;10189;49.546;7.906;2023-07-09T05:25:55;19.40;81.60
20057;DHT22;10189;49.546;7.906;2023-07-09T05:28:25;19.50;81.90
20057;DHT22;10189;49.546;7.906;2023-07-09T05:30:51;19.60;81.40
20057;DHT22;10189;49.546;7.906;2023-07-09T05:33:18;19.70;81.50
20057;DHT22;10189;49.546;7.906;2023-07-09T05:35:44;19.70;82.20
20057;DHT22;10189;49.546;7.906;2023-07-09T05:38:11;19.80;82.10
20057;DHT22;10189;49.546;7.906;2023-07-09T05:40:39;19.90;81.80
20057;DHT22;10189;49.546;7.906;2023-07-09T05:43:05;20.10;80.80
20057;DHT22;10189;49.546;7.906;2023-07-09T05:45:31;20.20;80.30
20057;DHT22;10189;49.546;7.906;2023-07-09T05:47:58;20.20;80.20
20057;DHT22;10189;49.546;7.906;2023-07-09T05:50:25;20.30;79.60
20057;DHT22;10189;49.546;7.906;2023-07-09T05:52:52;20.40;78.90
20057;DHT22;10189;49.546;7.906;2023-07-09T05:55:18;20.50;78.30
20057;DHT22;10189;49.546;7.906;2023-07-09T05:57:43;20.60;77.90
20057;DHT22;10189;49.546;7.906;2023-07-09T06:00:10;20.80;77.80
20057;DHT22;10189;49.546;7.906;2023-07-09T06:02:39;21.00;79.30
20057;DHT22;10189;49.546;7.906;2023-07-09T06:05:06;21.30;78.10
20057;DHT22;10189;49.546;7.906;2023-07-09T06:07:37;21.60;76.70
20057;DHT22;10189;49.546;7.906;2023-07-09T06:10:07;21.80;75.20
20057;DHT22;10189;49.546;7.906;2023-07-09T06:12:34;21.90;74.30
20057;DHT22;10189;49.546;7.906;2023-07-09T06:15:01;21.90;74.10
20057;DHT22;10189;49.546;7.906;2023-07-09T06:17:27;22.10;73.70
20057;DHT22;10189;49.546;7.906;2023-07-09T06:19:52;22.20;73.40
20057;DHT22;10189;49.546;7.906;2023-07-09T06:22:18;22.20;73.70
20057;DHT22;10189;49.546;7.906;2023-07-09T06:24:45;22.20;75.20
20057;DHT22;10189;49.546;7.906;2023-07-09T06:27:11;22.50;74.60
20057;DHT22;10189;49.546;7.906;2023-07-09T06:29:37;22.70;75.00
20057;DHT22;10189;49.546;7.906;2023-07-09T06:32:04;23.00;74.20
20057;DHT22;10189;49.546;7.906;2023-07-09T06:34:30;23.00;73.30
20057;DHT22;10189;49.546;7.906;2023-07-09T06:36:56;23.30;73.90
20057;DHT22;10189;49.546;7.906;2023-07-09T06:39:22;23.60;73.90
20057;DHT22;10189;49.546;7.906;2023-07-09T06:41:49;23.80;72.20
20057;DHT22;10189;49.546;7.906;2023-07-09T06:44:53;24.10;71.60
20057;DHT22;10189;49.546;7.906;2023-07-09T06:47:19;24.20;70.00
20057;DHT22;10189;49.546;7.906;2023-07-09T06:49:45;24.50;70.30
20057;DHT22;10189;49.546;7.906;2023-07-09T06:52:11;24.90;69.80
20057;DHT22;10189;49.546;7.906;2023-07-09T06:54:36;25.20;70.40
20057;DHT22;10189;49.546;7.906;2023-07-09T06:57:03;25.40;68.60
20057;DHT22;10189;49.546;7.906;2023-07-09T06:59:29;25.70;67.10
20057;DHT22;10189;49.546;7.906;2023-07-09T07:01:54;25.80;67.20
20057;DHT22;10189;49.546;7.906;2023-07-09T07:04:20;26.00;66.60
20057;DHT22;10189;49.546;7.906;2023-07-09T07:06:46;26.10;66.20
20057;DHT22;10189;49.546;7.906;2023-07-09T07:09:12;26.20;64.00
20057;DHT22;10189;49.546;7.906;2023-07-09T07:11:38;26.30;64.00
20057;DHT22;10189;49.546;7.906;2023-07-09T07:14:04;26.30;63.60
20057;DHT22;10189;49.546;7.906;2023-07-09T07:16:30;26.30;64.50
20057;DHT22;10189;49.546;7.906;2023-07-09T07:18:55;26.30;62.70
20057;DHT22;10189;49.546;7.906;2023-07-09T07:21:21;26.50;61.40
20057;DHT22;10189;49.546;7.906;2023-07-09T07:23:47;26.60;61.90
20057;DHT22;10189;49.546;7.906;2023-07-09T07:26:13;26.70;61.40
20057;DHT22;10189;49.546;7.906;2023-07-09T07:28:39;27.00;60.60
20057;DHT22;10189;49.546;7.906;2023-07-09T07:31:08;27.30;57.80
20057;DHT22;10189;49.546;7.906;2023-07-09T07:33:35;27.60;58.60
20057;DHT22;10189;49.546;7.906;2023-07-09T07:36:04;27.80;57.70
20057;DHT22;10189;49.546;7.906;2023-07-09T07:38:31;28.10;55.70
20057;DHT22;10189;49.546;7.906;2023-07-09T07:40:57;28.30;56.90
20057;DHT22;10189;49.546;7.906;2023-07-09T07:43:22;28.60;56.80
20057;DHT22;10189;49.546;7.906;2023-07-09T07:45:48;29.00;54.20
20057;DHT22;10189;49.546;7.906;2023-07-09T07:48:14;29.20;51.20
20057;DHT22;10189;49.546;7.906;2023-07-09T07:50:40;29.50;49.60
20057;DHT22;10189;49.546;7.906;2023-07-09T07:53:07;29.50;49.80
20057;DHT22;10189;49.546;7.906;2023-07-09T07:55:34;29.70;49.20
20057;DHT22;10189;49.546;7.906;2023-07-09T07:58:02;29.80;48.20
20057;DHT22;10189;49.546;7.906;2023-07-09T08:00:30;29.90;47.70
20057;DHT22;10189;49.546;7.906;2023-07-09T08:02:56;30.00;46.80
20057;DHT22;10189;49.546;7.906;2023-07-09T08:05:22;30.20;46.90
20057;DHT22;10189;49.546;7.906;2023-07-09T08:07:49;30.30;47.10
20057;DHT22;10189;49.546;7.906;2023-07-09T08:10:15;30.40;46.90
20057;DHT22;10189;49.546;7.906;2023-07-09T08:12:41;30.60;46.00
20057;DHT22;10189;49.546;7.906;2023-07-09T08:15:08;30.80;46.20
20057;DHT22;10189;49.546;7.906;2023-07-09T08:17:34;30.80;45.90
20057;DHT22;10189;49.546;7.906;2023-07-09T08:19:59;30.90;44.90
20057;DHT22;10189;49.546;7.906;2023-07-09T08:22:26;30.90;44.60
20057;DHT22;10189;49.546;7.906;2023-07-09T08:24:52;31.10;46.00
20057;DHT22;10189;49.546;7.906;2023-07-09T08:27:18;31.40;45.60
20057;DHT22;10189;49.546;7.906;2023-07-09T08:29:45;31.40;42.50
20057;DHT22;10189;49.546;7.906;2023-07-09T08:32:12;31.50;40.90
20057;DHT22;10189;49.546;7.906;2023-07-09T08:34:40;31.50;40.80
20057;DHT22;10189;49.546;7.906;2023-07-09T08:37:08;31.60;42.50
20057;DHT22;10189;49.546;7.906;2023-07-09T08:39:34;31.50;42.50
20057;DHT22;10189;49.546;7.906;2023-07-09T08:42:11;31.50;43.10
20057;DHT22;10189;49.546;7.906;2023-07-09T08:50:09;31.80;42.80
20057;DHT22;10189;49.546;7.906;2023-07-09T08:52:41;31.70;42.50
20057;DHT22;10189;49.546;7.906;2023-07-09T08:55:12;31.80;44.30
20057;DHT22;10189;49.546;7.906;2023-07-09T08:57:43;31.80;43.80
20057;DHT22;10189;49.546;7.906;2023-07-09T09:06:16;32.00;43.80
20057;DHT22;10189;49.546;7.906;2023-07-09T09:12:17;32.20;45.20
20057;DHT22;10189;49.546;7.906;2023-07-09T09:14:52;32.30;43.50
20057;DHT22;10189;49.546;7.906;2023-07-09T09:17:25;32.40;43.00
20057;DHT22;10189;49.546;7.906;2023-07-09T09:20:19;32.50;43.20
20057;DHT22;10189;49.546;7.906;2023-07-09T09:25:28;32.70;42.80
20057;DHT22;10189;49.546;7.906;2023-07-09T09:27:56;32.70;43.60
20057;DHT22;10189;49.546;7.906;2023-07-09T09:30:23;32.90;44.30
20057;DHT22;10189;49.546;7.906;2023-07-09T09:35:26;32.70;42.90
20057;DHT22;10189;49.546;7.906;2023-07-09T09:37:55;32.40;46.30
20057;DHT22;10189;49.546;7.906;2023-07-09T09:40:23;32.50;44.90
20057;DHT22;10189;49.546;7.906;2023-07-09T09:42:53;32.60;43.90
20057;DHT22;10189;49.546;7.906;2023-07-09T09:45:35;32.30;44.50
20057;DHT22;10189;49.546;7.906;2023-07-09T09:50:46;32.30;44.50
20057;DHT22;10189;49.546;7.906;2023-07-09T09:53:24;32.30;43.10
20057;DHT22;10189;49.546;7.906;2023-07-09T09:55:53;32.30;44.60
20057;DHT22;10189;49.546;7.906;2023-07-09T09:58:25;32.30;45.90
20057;DHT22;10189;49.546;7.906;2023-07-09T10:00:56;32.20;45.60
20057;DHT22;10189;49.546;7.906;2023-07-09T10:03:33;32.10;46.20
20057;DHT22;10189;49.546;7.906;2023-07-09T10:06:18;32.00;47.40
20057;DHT22;10189;49.546;7.906;2023-07-09T10:09:09;32.00;47.30
20057;DHT22;10189;49.546;7.906;2023-07-09T10:11:57;31.80;46.80
20057;DHT22;10189;49.546;7.906;2023-07-09T10:17:19;31.90;47.50
20057;DHT22;10189;49.546;7.906;2023-07-09T10:25:46;32.40;44.80
20057;DHT22;10189;49.546;7.906;2023-07-09T10:34:30;32.40;44.30
20057;DHT22;10189;49.546;7.906;2023-07-09T10:40:12;32.50;44.30
20057;DHT22;10189;49.546;7.906;2023-07-09T10:42:50;32.30;44.20
20057;DHT22;10189;49.546;7.906;2023-07-09T10:45:42;32.40;42.60
20057;DHT22;10189;49.546;7.906;2023-07-09T10:48:18;32.80;41.30
20057;DHT22;10189;49.546;7.906;2023-07-09T10:50:53;33.10;40.80
20057;DHT22;10189;49.546;7.906;2023-07-09T10:53:43;33.20;40.30
20057;DHT22;10189;49.546;7.906;2023-07-09T10:56:19;33.00;40.70
20057;DHT22;10189;49.546;7.906;2023-07-09T11:01:56;32.90;39.70
20057;DHT22;10189;49.546;7.906;2023-07-09T11:04:52;33.00;38.10
20057;DHT22;10189;49.546;7.906;2023-07-09T11:07:48;33.30;37.70
20057;DHT22;10189;49.546;7.906;2023-07-09T11:10:37;33.50;36.90
20057;DHT22;10189;49.546;7.906;2023-07-09T11:13:16;33.80;35.90
20057;DHT22;10189;49.546;7.906;2023-07-09T11:15:48;34.10;36.10
20057;DHT22;10189;49.546;7.906;2023-07-09T11:18:25;34.30;35.20
20057;DHT22;10189;49.546;7.906;2023-07-09T11:21:07;34.50;35.20
20057;DHT22;10189;49.546;7.906;2023-07-09T11:23:47;34.70;33.60
20057;DHT22;10189;49.546;7.906;2023-07-09T11:26:33;34.50;34.50
20057;DHT22;10189;49.546;7.906;2023-07-09T11:31:39;34.20;34.50
20057;DHT22;10189;49.546;7.906;2023-07-09T11:34:17;34.30;32.90
20057;DHT22;10189;49.546;7.906;2023-07-09T11:36:49;34.40;32.90
20057;DHT22;10189;49.546;7.906;2023-07-09T11:39:22;34.40;32.70
20057;DHT22;10189;49.546;7.906;2023-07-09T11:41:56;34.60;32.70
20057;DHT22;10189;49.546;7.906;2023-07-09T11:44:28;34.90;32.60
20057;DHT22;10189;49.546;7.906;2023-07-09T11:49:56;35.00;32.70
20057;DHT22;10189;49.546;7.906;2023-07-09T11:52:31;34.80;31.30
20057;DHT22;10189;49.546;7.906;2023-07-09T11:55:21;34.70;31.60
20057;DHT22;10189;49.546;7.906;2023-07-09T11:58:02;34.60;32.40
20057;DHT22;10189;49.546;7.906;2023-07-09T12:00:47;34.40;31.30
20057;DHT22;10189;49.546;7.906;2023-07-09T12:05:59;34.60;31.20
20057;DHT22;10189;49.546;7.906;2023-07-09T12:08:37;34.50;30.70
20057;DHT22;10189;49.546;7.906;2023-07-09T12:11:05;34.60;30.00
20057;DHT22;10189;49.546;7.906;2023-07-09T12:13:39;34.80;30.40
20057;DHT22;10189;49.546;7.906;2023-07-09T12:16:27;35.20;31.50
20057;DHT22;10189;49.546;7.906;2023-07-09T12:18:55;35.70;31.20
20057;DHT22;10189;49.546;7.906;2023-07-09T12:21:22;35.70;30.50
20057;DHT22;10189;49.546;7.906;2023-07-09T12:23:50;35.30;29.80
20057;DHT22;10189;49.546;7.906;2023-07-09T12:26:18;35.10;30.60
20057;DHT22;10189;49.546;7.906;2023-07-09T12:28:56;35.10;31.60
20057;DHT22;10189;49.546;7.906;2023-07-09T12:31:29;35.30;32.60
20057;DHT22;10189;49.546;7.906;2023-07-09T12:33:57;35.40;32.40
20057;DHT22;10189;49.546;7.906;2023-07-09T12:36:25;35.30;31.10
20057;DHT22;10189;49.546;7.906;2023-07-09T12:38:56;35.20;31.30
20057;DHT22;10189;49.546;7.906;2023-07-09T12:41:29;35.10;31.20
20057;DHT22;10189;49.546;7.906;2023-07-09T12:44:02;35.10;32.10
20057;DHT22;10189;49.546;7.906;2023-07-09T12:46:28;34.90;31.90
20057;DHT22;10189;49.546;7.906;2023-07-09T12:48:55;34.90;31.00
20057;DHT22;10189;49.546;7.906;2023-07-09T12:51:24;34.90;31.70
20057;DHT22;10189;49.546;7.906;2023-07-09T12:54:15;34.90;31.00
20057;DHT22;10189;49.546;7.906;2023-07-09T12:56:44;35.00;32.60
20057;DHT22;10189;49.546;7.906;2023-07-09T13:01:55;35.40;31.80
20057;DHT22;10189;49.546;7.906;2023-07-09T13:04:37;35.50;30.60
20057;DHT22;10189;49.546;7.906;2023-07-09T13:07:05;35.40;30.60
20057;DHT22;10189;49.546;7.906;2023-07-09T13:09:51;35.50;31.20
20057;DHT22;10189;49.546;7.906;2023-07-09T13:12:20;35.50;31.80
20057;DHT22;10189;49.546;7.906;2023-07-09T13:14:54;35.60;30.20
20057;DHT22;10189;49.546;7.906;2023-07-09T13:17:20;35.50;30.70
20057;DHT22;10189;49.546;7.906;2023-07-09T13:19:46;35.30;31.10
20057;DHT22;10189;49.546;7.906;2023-07-09T13:22:17;35.60;31.30
20057;DHT22;10189;49.546;7.906;2023-07-09T13:24:45;36.00;31.70
20057;DHT22;10189;49.546;7.906;2023-07-09T13:27:12;36.50;31.10
20057;DHT22;10189;49.546;7.906;2023-07-09T13:29:39;36.70;29.90
20057;DHT22;10189;49.546;7.906;2023-07-09T13:32:11;36.90;30.60
20057;DHT22;10189;49.546;7.906;2023-07-09T13:34:39;37.10;29.70
20057;DHT22;10189;49.546;7.906;2023-07-09T13:37:12;37.30;29.10
20057;DHT22;10189;49.546;7.906;2023-07-09T13:39:40;37.10;29.60
20057;DHT22;10189;49.546;7.906;2023-07-09T13:42:12;37.10;29.00
20057;DHT22;10189;49.546;7.906;2023-07-09T13:44:42;36.80;29.80
20057;DHT22;10189;49.546;7.906;2023-07-09T13:47:15;36.50;30.10
20057;DHT22;10189;49.546;7.906;2023-07-09T13:49:44;36.20;30.20
20057;DHT22;10189;49.546;7.906;2023-07-09T13:52:16;36.10;28.40
20057;DHT22;10189;49.546;7.906;2023-07-09T13:54:44;35.80;28.70
20057;DHT22;10189;49.546;7.906;2023-07-09T13:57:19;35.80;28.60
20057;DHT22;10189;49.546;7.906;2023-07-09T13:59:47;35.90;29.20
20057;DHT22;10189;49.546;7.906;2023-07-09T14:02:22;36.00;29.20
20057;DHT22;10189;49.546;7.906;2023-07-09T14:04:53;36.30;30.10
20057;DHT22;10189;49.546;7.906;2023-07-09T14:07:37;36.60;30.60
20057;DHT22;10189;49.546;7.906;2023-07-09T14:10:07;36.90;30.30
20057;DHT22;10189;49.546;7.906;2023-07-09T14:12:42;37.00;29.60
20057;DHT22;10189;49.546;7.906;2023-07-09T14:15:20;36.90;28.80
20057;DHT22;10189;49.546;7.906;2023-07-09T14:17:46;36.60;28.40
20057;DHT22;10189;49.546;7.906;2023-07-09T14:20:16;36.30;28.20
20057;DHT22;10189;49.546;7.906;2023-07-09T14:22:43;36.10;29.50
20057;DHT22;10189;49.546;7.906;2023-07-09T14:25:19;36.10;29.00
20057;DHT22;10189;49.546;7.906;2023-07-09T14:27:49;36.20;29.60
20057;DHT22;10189;49.546;7.906;2023-07-09T14:30:18;36.10;29.00
20057;DHT22;10189;49.546;7.906;2023-07-09T14:32:47;36.10;29.70
20057;DHT22;10189;49.546;7.906;2023-07-09T14:35:20;36.20;29.80
20057;DHT22;10189;49.546;7.906;2023-07-09T14:37:51;36.10;28.90
20057;DHT22;10189;49.546;7.906;2023-07-09T14:40:19;36.00;29.40
20057;DHT22;10189;49.546;7.906;2023-07-09T14:42:47;35.90;29.40
20057;DHT22;10189;49.546;7.906;2023-07-09T14:45:23;35.70;29.50
20057;DHT22;10189;49.546;7.906;2023-07-09T14:47:52;35.50;29.70
20057;DHT22;10189;49.546;7.906;2023-07-09T14:50:19;35.30;30.00
20057;DHT22;10189;49.546;7.906;2023-07-09T14:52:47;35.30;30.10
20057;DHT22;10189;49.546;7.906;2023-07-09T14:55:16;35.10;29.70
20057;DHT22;10189;49.546;7.906;2023-07-09T14:57:45;35.10;30.70
20057;DHT22;10189;49.546;7.906;2023-07-09T15:00:16;35.10;30.30
20057;DHT22;10189;49.546;7.906;2023-07-09T15:02:46;35.00;29.70
20057;DHT22;10189;49.546;7.906;2023-07-09T15:05:23;35.10;31.00
20057;DHT22;10189;49.546;7.906;2023-07-09T15:07:51;35.00;30.20
20057;DHT22;10189;49.546;7.906;2023-07-09T15:10:25;34.90;31.00
20057;DHT22;10189;49.546;7.906;2023-07-09T15:12:55;34.80;30.10
20057;DHT22;10189;49.546;7.906;2023-07-09T15:15:31;34.80;31.00
20057;DHT22;10189;49.546;7.906;2023-07-09T15:18:00;34.80;31.20
20057;DHT22;10189;49.546;7.906;2023-07-09T15:20:34;35.00;31.50
20057;DHT22;10189;49.546;7.906;2023-07-09T15:23:00;35.10;32.60
20057;DHT22;10189;49.546;7.906;2023-07-09T15:25:28;35.10;31.90
20057;DHT22;10189;49.546;7.906;2023-07-09T15:27:56;35.10;31.80
20057;DHT22;10189;49.546;7.906;2023-07-09T15:30:24;35.10;32.30
20057;DHT22;10189;49.546;7.906;2023-07-09T15:32:55;35.00;32.00
20057;DHT22;10189;49.546;7.906;2023-07-09T15:35:33;35.00;32.90
20057;DHT22;10189;49.546;7.906;2023-07-09T15:38:05;35.00;32.50
20057;DHT22;10189;49.546;7.906;2023-07-09T15:40:43;35.00;32.70
20057;DHT22;10189;49.546;7.906;2023-07-09T15:43:09;34.90;32.90
20057;DHT22;10189;49.546;7.906;2023-07-09T15:45:42;35.10;33.30
20057;DHT22;10189;49.546;7.906;2023-07-09T15:50:55;35.10;31.70
20057;DHT22;10189;49.546;7.906;2023-07-09T15:53:22;35.00;34.30
20057;DHT22;10189;49.546;7.906;2023-07-09T15:55:48;35.00;34.20
20057;DHT22;10189;49.546;7.906;2023-07-09T15:58:19;34.80;33.50
20057;DHT22;10189;49.546;7.906;2023-07-09T16:00:49;34.80;34.40
20057;DHT22;10189;49.546;7.906;2023-07-09T16:03:15;34.60;32.80
20057;DHT22;10189;49.546;7.906;2023-07-09T16:05:42;34.30;34.80
20057;DHT22;10189;49.546;7.906;2023-07-09T16:08:10;33.40;36.80
20057;DHT22;10189;49.546;7.906;2023-07-09T16:10:36;32.80;38.40
20057;DHT22;10189;49.546;7.906;2023-07-09T16:13:03;32.50;38.40
20057;DHT22;10189;49.546;7.906;2023-07-09T16:15:29;32.40;39.00
20057;DHT22;10189;49.546;7.906;2023-07-09T16:17:56;32.30;38.80
20057;DHT22;10189;49.546;7.906;2023-07-09T16:20:25;32.30;38.90
20057;DHT22;10189;49.546;7.906;2023-07-09T16:22:55;32.30;39.10
20057;DHT22;10189;49.546;7.906;2023-07-09T16:25:31;32.10;39.80
20057;DHT22;10189;49.546;7.906;2023-07-09T16:27:59;32.00;39.50
20057;DHT22;10189;49.546;7.906;2023-07-09T16:30:28;31.80;39.90
20057;DHT22;10189;49.546;7.906;2023-07-09T16:32:57;31.90;40.30
20057;DHT22;10189;49.546;7.906;2023-07-09T16:35:26;31.80;41.30
20057;DHT22;10189;49.546;7.906;2023-07-09T16:37:54;31.90;41.30
20057;DHT22;10189;49.546;7.906;2023-07-09T16:40:27;31.90;41.10
20057;DHT22;10189;49.546;7.906;2023-07-09T16:42:57;31.90;41.30
20057;DHT22;10189;49.546;7.906;2023-07-09T16:45:25;31.90;41.40
20057;DHT22;10189;49.546;7.906;2023-07-09T16:47:52;31.90;41.00